Time;durP1;ratioP1;P1;durP2;ratioP2;P2;SDS_P1;SDS_P2;PMS_P1;PMS_P2;Temp;Humidity;BMP_temperature;BMP_pressure;BME280_temperature;BME280_humidity;BME280_pressure;Samples;Min_cycle;Max_cycle;Signal;HPM_P1;HPM_P2
2022/04/15 00:00:32;;;;;;;17.73;11.90;;;23.40;99.90;;;;;;5036556;23;20195;-55
2022/04/15 00:02:58;;;;;;;14.77;10.50;;;23.40;99.90;;;;;;5031613;28;20037;-55
2022/04/15 00:05:34;;;;;;;15.57;11.93;;;23.40;99.90;;;;;;5031436;28;20104;-56
2022/04/15 00:08:01;;;;;;;15.93;11.45;;;23.40;99.90;;;;;;5031696;28;20061;-55
2022/04/15 00:10:28;;;;;;;19.33;13.07;;;23.40;99.90;;;;;;5031753;28;20045;-56
2022/04/15 00:12:57;;;;;;;16.65;10.93;;;23.40;99.90;;;;;;5031795;28;20029;-56
2022/04/15 00:15:23;;;;;;;13.93;10.27;;;23.40;99.90;;;;;;5031567;28;20480;-56
2022/04/15 00:17:50;;;;;;;16.67;11.73;;;23.30;99.90;;;;;;5031581;28;20021;-56
2022/04/15 00:20:16;;;;;;;18.60;12.68;;;23.40;99.90;;;;;;5031585;28;20029;-56
2022/04/15 00:22:42;;;;;;;17.67;12.52;;;23.40;99.90;;;;;;5017808;28;20013;-57
2022/04/15 00:25:10;;;;;;;15.40;11.80;;;23.40;99.90;;;;;;5030627;28;20037;-57
2022/04/15 00:27:39;;;;;;;17.85;11.73;;;23.40;99.90;;;;;;5031290;28;20499;-56
2022/04/15 00:30:07;;;;;;;18.05;11.45;;;23.40;99.90;;;;;;5031601;28;20466;-56
2022/04/15 00:32:33;;;;;;;16.65;12.02;;;23.30;99.90;;;;;;5031379;28;20465;-57
2022/04/15 00:34:59;;;;;;;18.25;12.55;;;23.30;99.90;;;;;;5031199;28;20561;-56
2022/04/15 00:37:25;;;;;;;17.08;13.38;;;23.30;99.90;;;;;;5029925;28;20029;-57
2022/04/15 00:39:52;;;;;;;16.75;11.80;;;23.30;99.90;;;;;;5030173;28;20377;-57
2022/04/15 00:42:18;;;;;;;16.23;11.90;;;23.30;99.90;;;;;;5031059;28;20017;-56
2022/04/15 00:44:44;;;;;;;17.35;12.10;;;23.30;99.90;;;;;;5031447;28;20259;-57
2022/04/15 00:47:20;;;;;;;20.40;12.80;;;23.30;99.90;;;;;;5031129;28;20083;-59
2022/04/15 00:49:47;;;;;;;17.33;13.03;;;23.30;99.90;;;;;;5029981;28;20128;-59
2022/04/15 00:52:14;;;;;;;18.35;13.13;;;23.30;99.90;;;;;;5031182;28;20060;-57
2022/04/15 00:54:43;;;;;;;18.60;13.25;;;23.20;99.90;;;;;;5029889;28;20358;-58
2022/04/15 00:57:11;;;;;;;18.33;12.52;;;23.30;99.90;;;;;;5029629;28;20017;-58
2022/04/15 00:59:38;;;;;;;18.35;12.98;;;23.30;99.90;;;;;;5031348;28;20069;-58
2022/04/15 01:02:04;;;;;;;;;;;23.20;99.90;;;;;;5031294;28;20501;-56
2022/04/15 01:04:31;;;;;;;18.40;13.27;;;23.30;99.90;;;;;;5031037;28;19912;-56
2022/04/15 01:07:04;;;;;;;16.40;12.63;;;23.30;99.90;;;;;;5031041;28;20396;-57
2022/04/15 01:09:33;;;;;;;19.90;13.95;;;23.20;99.90;;;;;;5030950;28;20037;-57
2022/04/15 01:12:02;;;;;;;19.33;13.93;;;23.20;99.90;;;;;;5030933;28;20060;-57
2022/04/15 01:14:29;;;;;;;21.10;15.05;;;23.20;99.90;;;;;;5030912;28;20036;-57
2022/04/15 01:16:55;;;;;;;20.55;15.27;;;23.20;99.90;;;;;;5029670;28;20500;-57
2022/04/15 01:19:21;;;;;;;17.73;13.48;;;23.20;99.90;;;;;;5030981;28;20517;-57
2022/04/15 01:21:50;;;;;;;18.15;14.20;;;23.20;99.90;;;;;;5029807;28;20135;-58
2022/04/15 01:24:16;;;;;;;19.23;14.70;;;23.20;99.90;;;;;;5030810;28;20112;-56
2022/04/15 01:26:42;;;;;;;20.00;14.65;;;23.20;99.90;;;;;;5030881;28;20151;-56
2022/04/15 01:29:08;;;;;;;19.08;13.88;;;23.20;99.90;;;;;;5030762;28;20045;-57
2022/04/15 01:31:33;;;;;;;20.77;14.40;;;23.10;99.90;;;;;;5031060;28;20503;-57
2022/04/15 01:34:01;;;;;;;19.63;14.27;;;23.20;99.90;;;;;;5030795;28;20116;-56
2022/04/15 01:36:26;;;;;;;19.90;14.80;;;23.20;99.90;;;;;;5033144;28;20057;-56
2022/04/15 01:38:57;;;;;;;20.55;15.30;;;23.20;99.90;;;;;;5034667;28;20107;-56
2022/04/15 01:41:23;;;;;;;18.75;13.30;;;23.10;99.90;;;;;;5034345;28;20021;-56
2022/04/15 01:43:49;;;;;;;19.95;14.45;;;23.10;99.90;;;;;;5034667;28;20030;-56
2022/04/15 01:46:15;;;;;;;20.23;14.30;;;23.10;99.90;;;;;;5034481;28;20032;-56
2022/04/15 01:48:41;;;;;;;19.83;13.88;;;23.10;99.90;;;;;;5033051;28;20263;-56
2022/04/15 01:51:07;;;;;;;21.38;13.95;;;23.10;99.90;;;;;;5034337;28;20610;-56
2022/04/15 01:53:33;;;;;;;21.98;14.98;;;23.10;99.90;;;;;;5034369;28;20526;-56
2022/04/15 01:55:59;;;;;;;20.08;14.25;;;23.10;99.90;;;;;;5034423;28;20108;-57
2022/04/15 01:58:24;;;;;;;22.08;16.30;;;23.10;99.90;;;;;;5034161;28;20133;-56
2022/04/15 02:00:50;;;;;;;22.65;15.93;;;23.10;99.90;;;;;;5034833;28;20103;-56
2022/04/15 02:03:16;;;;;;;19.70;14.45;;;23.00;99.90;;;;;;5034183;28;20109;-56
2022/04/15 02:05:42;;;;;;;20.00;14.07;;;23.00;99.90;;;;;;5034104;28;20022;-56
2022/04/15 02:08:08;;;;;;;19.58;13.75;;;23.00;99.90;;;;;;5034189;28;20079;-56
2022/04/15 02:10:34;;;;;;;19.50;13.40;;;23.00;99.90;;;;;;5034180;28;20029;-56
2022/04/15 02:13:00;;;;;;;16.52;12.65;;;23.00;99.90;;;;;;5034057;28;20109;-56
2022/04/15 02:15:25;;;;;;;17.23;13.30;;;23.00;99.90;;;;;;5033796;28;20023;-56
2022/04/15 02:17:51;;;;;;;20.73;14.20;;;23.00;99.90;;;;;;5033925;28;20109;-56
2022/04/15 02:20:17;;;;;;;18.38;13.27;;;23.00;99.90;;;;;;5033843;28;20088;-56
2022/04/15 02:22:43;;;;;;;17.73;12.93;;;23.00;99.90;;;;;;5033761;28;20373;-56
2022/04/15 02:25:09;;;;;;;20.75;13.55;;;23.00;99.90;;;;;;5033750;28;20401;-56
2022/04/15 02:27:34;;;;;;;21.75;14.60;;;23.00;99.90;;;;;;5033624;28;20499;-56
2022/04/15 02:30:00;;;;;;;18.40;13.45;;;23.00;99.90;;;;;;5033796;28;20029;-56
2022/04/15 02:32:30;;;;;;;19.02;13.30;;;22.90;99.90;;;;;;5033490;28;20409;-56
2022/04/15 02:34:56;;;;;;;16.27;12.70;;;22.90;99.90;;;;;;5033555;28;20366;-57
2022/04/15 02:37:21;;;;;;;18.08;12.30;;;22.90;99.90;;;;;;5033641;28;20032;-56
2022/04/15 02:39:49;;;;;;;17.63;12.30;;;22.90;99.90;;;;;;5033622;28;20021;-56
2022/04/15 02:42:15;;;;;;;18.50;13.25;;;22.90;99.90;;;;;;5033467;28;20488;-56
2022/04/15 02:44:41;;;;;;;17.33;12.82;;;22.90;99.90;;;;;;5033290;28;20104;-56
2022/04/15 02:47:07;;;;;;;19.45;12.02;;;22.90;99.90;;;;;;5031296;28;20025;-56
2022/04/15 02:49:33;;;;;;;17.13;13.05;;;22.90;99.90;;;;;;5033203;28;20049;-56
2022/04/15 02:51:59;;;;;;;17.67;12.38;;;22.90;99.90;;;;;;5033113;28;20030;-56
2022/04/15 02:54:25;;;;;;;19.02;12.85;;;22.90;99.90;;;;;;5033264;28;20038;-56
2022/04/15 02:56:51;;;;;;;17.83;12.23;;;22.90;99.90;;;;;;5033277;28;20374;-56
2022/04/15 02:59:17;;;;;;;17.70;12.10;;;22.90;99.90;;;;;;5033562;28;20055;-57
2022/04/15 03:01:44;;;;;;;19.27;13.05;;;22.90;99.90;;;;;;5032973;28;20069;-56
2022/04/15 03:04:10;;;;;;;19.23;12.63;;;22.90;99.90;;;;;;5033105;28;20096;-57
2022/04/15 03:06:36;;;;;;;16.77;12.93;;;22.90;99.90;;;;;;5033187;28;20477;-56
2022/04/15 03:09:02;;;;;;;17.13;13.25;;;22.90;99.90;;;;;;5031417;28;20079;-57
2022/04/15 03:11:28;;;;;;;16.63;11.93;;;22.90;99.90;;;;;;5032769;28;20026;-57
2022/04/15 03:13:54;;;;;;;15.10;11.15;;;22.90;99.90;;;;;;5032635;28;20032;-56
2022/04/15 03:16:19;;;;;;;13.50;10.57;;;22.90;99.90;;;;;;5032792;28;20021;-56
2022/04/15 03:18:45;;;;;;;15.25;11.57;;;22.90;99.90;;;;;;5032748;28;20026;-57
2022/04/15 03:21:11;;;;;;;16.50;11.07;;;22.90;99.90;;;;;;5032760;28;20076;-56
2022/04/15 03:23:39;;;;;;;14.88;11.82;;;22.90;99.90;;;;;;5031383;28;20112;-56
2022/04/15 03:26:05;;;;;;;15.23;11.98;;;22.90;99.90;;;;;;5032499;28;20127;-56
2022/04/15 03:28:31;;;;;;;15.23;11.38;;;22.90;99.90;;;;;;5032442;28;20564;-56
2022/04/15 03:30:56;;;;;;;15.70;10.70;;;22.90;99.90;;;;;;5032357;28;20135;-57
2022/04/15 03:33:22;;;;;;;15.73;11.75;;;22.90;99.90;;;;;;5032392;28;20026;-57
2022/04/15 03:35:48;;;;;;;14.23;10.98;;;22.90;99.90;;;;;;5032250;28;20022;-57
2022/04/15 03:38:14;;;;;;;15.75;11.18;;;22.90;99.90;;;;;;5032418;28;20013;-58
2022/04/15 03:40:39;;;;;;;14.93;10.85;;;22.90;99.90;;;;;;5032569;28;20562;-58
2022/04/15 03:43:05;;;;;;;14.68;11.27;;;22.90;99.90;;;;;;5032091;28;20022;-57
2022/04/15 03:45:31;;;;;;;14.23;10.93;;;22.90;99.90;;;;;;5032224;28;20156;-58
2022/04/15 03:47:57;;;;;;;14.65;10.65;;;22.90;99.90;;;;;;5032054;28;20048;-57
2022/04/15 03:50:24;;;;;;;13.23;10.20;;;22.90;99.90;;;;;;5031926;28;20033;-56
2022/04/15 03:52:50;;;;;;;14.80;10.85;;;22.90;99.90;;;;;;5031941;28;20037;-57
2022/04/15 03:55:19;;;;;;;12.57;9.70;;;22.90;99.90;;;;;;5031905;28;20112;-56
2022/04/15 03:57:45;;;;;;;15.07;11.45;;;22.90;99.90;;;;;;5032136;28;20026;-57
2022/04/15 04:00:13;;;;;;;13.77;9.88;;;22.90;99.90;;;;;;5032168;28;20559;-57
2022/04/15 04:02:43;;;;;;;15.13;10.45;;;22.90;99.90;;;;;;5032496;28;20021;-57
2022/04/15 04:05:10;;;;;;;15.02;10.70;;;22.90;99.90;;;;;;5031620;28;20033;-57
2022/04/15 04:07:35;;;;;;;14.63;10.43;;;22.80;99.90;;;;;;5031352;28;20025;-57
2022/04/15 04:10:01;;;;;;;14.23;10.32;;;22.80;99.90;;;;;;5031648;28;20495;-57
2022/04/15 04:12:36;;;;;;;11.73;9.60;;;22.80;99.90;;;;;;5031512;28;20071;-56
2022/04/15 04:15:03;;;;;;;13.90;9.40;;;22.80;99.90;;;;;;5031684;28;20029;-57
2022/04/15 04:17:29;;;;;;;12.00;9.88;;;22.80;99.90;;;;;;5031568;28;20476;-56
2022/04/15 04:19:56;;;;;;;13.23;9.35;;;22.80;99.90;;;;;;5031645;28;20033;-56
2022/04/15 04:22:26;;;;;;;12.18;9.50;;;22.80;99.90;;;;;;5031443;28;20554;-57
2022/04/15 04:24:52;;;;;;;13.90;9.80;;;22.80;99.90;;;;;;5031546;28;20392;-57
2022/04/15 04:27:18;;;;;;;14.27;9.88;;;22.80;99.90;;;;;;5031449;28;20021;-57
2022/04/15 04:29:43;;;;;;;12.50;9.90;;;22.80;99.90;;;;;;5031591;28;20508;-58
2022/04/15 04:32:09;;;;;;;13.20;10.18;;;22.80;99.90;;;;;;5031649;28;20484;-58
2022/04/15 04:34:35;;;;;;;14.32;9.43;;;22.80;99.90;;;;;;5031688;28;20033;-58
2022/04/15 04:37:00;;;;;;;14.27;10.45;;;22.80;99.90;;;;;;5029853;28;20453;-58
2022/04/15 04:39:29;;;;;;;12.32;9.77;;;22.80;99.90;;;;;;5029984;28;20018;-58
2022/04/15 04:41:55;;;;;;;12.15;9.18;;;22.80;99.90;;;;;;5031149;28;20100;-58
2022/04/15 04:44:21;;;;;;;12.43;9.65;;;22.80;99.90;;;;;;5031160;28;20078;-58
2022/04/15 04:46:48;;;;;;;12.00;8.63;;;22.80;99.90;;;;;;5031242;28;20369;-58
2022/04/15 04:49:14;;;;;;;11.73;9.05;;;22.80;99.90;;;;;;5031295;28;20032;-58
2022/04/15 04:51:39;;;;;;;13.98;9.18;;;22.80;99.90;;;;;;5031008;28;20025;-57
2022/04/15 04:54:06;;;;;;;11.68;9.60;;;22.80;99.90;;;;;;5031105;28;20039;-58
2022/04/15 04:56:32;;;;;;;12.18;8.98;;;22.80;99.90;;;;;;5031284;28;20033;-58
2022/04/15 04:58:57;;;;;;;11.25;8.18;;;22.80;99.90;;;;;;5012899;28;20026;-57
2022/04/15 05:01:23;;;;;;;12.02;9.40;;;22.80;99.90;;;;;;5023029;28;20052;-57
2022/04/15 05:03:49;;;;;;;12.32;9.45;;;22.80;99.90;;;;;;5029677;28;20147;-58
2022/04/15 05:06:15;;;;;;;11.45;8.88;;;22.80;99.90;;;;;;5031319;28;20030;-56
2022/04/15 05:08:40;;;;;;;12.35;9.45;;;22.80;99.90;;;;;;5029566;28;20493;-56
2022/04/15 05:11:06;;;;;;;11.73;9.07;;;22.80;99.90;;;;;;5032821;28;20091;-57
2022/04/15 05:13:32;;;;;;;12.13;9.15;;;22.70;99.90;;;;;;5034889;28;20033;-56
2022/04/15 05:15:58;;;;;;;11.68;8.75;;;22.70;99.90;;;;;;5034956;28;20017;-56
2022/04/15 05:18:23;;;;;;;12.20;9.13;;;22.70;99.90;;;;;;5034942;28;20029;-57
2022/04/15 05:20:49;;;;;;;11.77;9.10;;;22.70;99.90;;;;;;5034944;28;20017;-57
2022/04/15 05:23:15;;;;;;;13.23;8.98;;;22.70;99.90;;;;;;5033836;28;20025;-56
2022/04/15 05:25:41;;;;;;;12.68;9.40;;;22.70;99.90;;;;;;5034739;28;20033;-56
2022/04/15 05:28:07;;;;;;;10.82;8.18;;;22.70;99.90;;;;;;5033360;28;20083;-56
2022/04/15 05:30:33;;;;;;;11.77;8.57;;;22.70;99.90;;;;;;5034576;28;20022;-57
2022/04/15 05:32:58;;;;;;;11.73;8.75;;;22.70;99.90;;;;;;5034914;28;20021;-56
2022/04/15 05:35:24;;;;;;;12.13;9.05;;;22.70;99.90;;;;;;5034758;28;20018;-57
2022/04/15 05:37:50;;;;;;;10.35;8.50;;;22.70;99.90;;;;;;5034729;28;20022;-58
2022/04/15 05:40:16;;;;;;;12.15;8.95;;;22.70;99.90;;;;;;5034805;28;20022;-57
2022/04/15 05:42:42;;;;;;;12.43;8.60;;;22.70;99.90;;;;;;5034519;28;20025;-57
2022/04/15 05:45:09;;;;;;;11.48;8.43;;;22.70;99.90;;;;;;5034409;28;20024;-57
2022/04/15 05:47:34;;;;;;;11.93;9.30;;;22.70;99.90;;;;;;5034437;28;20196;-57
2022/04/15 05:50:00;;;;;;;12.25;9.32;;;22.70;99.90;;;;;;5032983;28;20124;-56
2022/04/15 05:52:26;;;;;;;11.73;8.48;;;22.60;99.90;;;;;;5034200;28;20040;-57
2022/04/15 05:54:52;;;;;;;11.40;8.35;;;22.60;99.90;;;;;;5034575;28;20037;-56
2022/04/15 05:57:19;;;;;;;11.02;8.15;;;22.70;99.90;;;;;;5034371;28;20022;-57
2022/04/15 05:59:45;;;;;;;10.95;8.38;;;22.60;99.90;;;;;;5034291;28;20137;-57
2022/04/15 06:02:11;;;;;;;11.05;8.68;;;22.70;99.90;;;;;;5034105;28;20443;-57
2022/04/15 06:04:36;;;;;;;10.90;8.20;;;22.60;99.90;;;;;;5034246;28;20409;-57
2022/04/15 06:07:02;;;;;;;10.80;8.00;;;22.60;99.90;;;;;;5034072;28;20551;-58
2022/04/15 06:09:28;;;;;;;11.50;8.52;;;22.60;99.90;;;;;;5034005;28;20038;-57
2022/04/15 06:11:56;;;;;;;11.30;8.07;;;22.60;99.90;;;;;;5033829;28;20028;-58
2022/04/15 06:14:22;;;;;;;12.82;8.60;;;22.60;99.90;;;;;;5010984;28;20036;-56
2022/04/15 06:16:49;;;;;;;13.75;8.43;;;22.70;99.90;;;;;;5014206;28;20101;-57
2022/04/15 06:19:16;;;;;;;12.07;8.35;;;22.60;99.90;;;;;;5014008;28;20014;-56
2022/04/15 06:21:42;;;;;;;12.73;8.25;;;22.60;99.90;;;;;;5013081;28;20464;-56
2022/04/15 06:24:08;;;;;;;11.50;8.13;;;22.60;99.90;;;;;;5011104;28;20026;-57
2022/04/15 06:26:37;;;;;;;10.95;7.60;;;22.60;99.90;;;;;;5011711;28;20513;-58
2022/04/15 06:29:04;;;;;;;10.98;7.50;;;22.60;99.90;;;;;;5012399;28;20041;-57
2022/04/15 06:31:30;;;;;;;10.73;7.10;;;22.60;99.90;;;;;;5028273;28;20022;-57
2022/04/15 06:33:56;;;;;;;11.43;7.82;;;22.60;99.90;;;;;;5013154;28;20026;-58
2022/04/15 06:36:22;;;;;;;11.15;7.22;;;22.60;99.90;;;;;;5013679;28;20048;-57
2022/04/15 06:38:48;;;;;;;9.48;6.95;;;22.60;99.90;;;;;;5014012;28;20497;-56
2022/04/15 06:41:14;;;;;;;10.65;7.13;;;22.60;99.90;;;;;;5013440;28;20014;-57
2022/04/15 06:43:40;;;;;;;13.02;8.00;;;22.60;99.90;;;;;;5033539;28;20115;-57
2022/04/15 06:46:06;;;;;;;11.63;7.43;;;22.60;99.90;;;;;;5033305;28;20103;-57
2022/04/15 06:48:32;;;;;;;9.00;6.93;;;22.60;99.90;;;;;;5032947;28;20076;-57
2022/04/15 06:50:58;;;;;;;9.88;7.25;;;22.60;99.90;;;;;;5033217;28;20025;-57
2022/04/15 06:53:24;;;;;;;10.05;7.15;;;22.70;99.90;;;;;;5033131;28;20560;-57
2022/04/15 06:55:51;;;;;;;11.45;7.18;;;22.70;99.90;;;;;;5033372;28;20341;-57
2022/04/15 06:58:17;;;;;;;10.43;7.35;;;22.70;99.90;;;;;;5033164;28;20021;-57
2022/04/15 07:00:43;;;;;;;9.93;7.18;;;22.70;99.90;;;;;;5032956;28;20053;-57
2022/04/15 07:03:09;;;;;;;10.68;6.85;;;22.70;99.90;;;;;;5032979;28;20021;-57
2022/04/15 07:05:35;;;;;;;10.00;6.95;;;22.70;99.90;;;;;;5031527;28;20032;-57
2022/04/15 07:08:01;;;;;;;11.45;7.75;;;22.70;99.90;;;;;;5032652;28;20036;-56
2022/04/15 07:10:27;;;;;;;12.40;7.28;;;22.70;99.90;;;;;;5032829;28;20021;-57
2022/04/15 07:12:52;;;;;;;11.15;8.20;;;22.70;99.90;;;;;;5032638;28;20551;-56
2022/04/15 07:15:20;;;;;;;11.73;7.10;;;22.70;99.90;;;;;;5032728;28;20025;-57
2022/04/15 07:17:46;;;;;;;11.10;7.13;;;22.70;99.90;;;;;;5032629;28;20425;-57
2022/04/15 07:20:12;;;;;;;11.10;7.38;;;22.70;99.90;;;;;;5032508;28;20048;-57
2022/04/15 07:22:38;;;;;;;9.82;6.78;;;22.80;99.90;;;;;;5032474;28;20017;-57
2022/04/15 07:25:04;;;;;;;10.65;7.22;;;22.80;99.90;;;;;;5032408;28;20025;-57
2022/04/15 07:27:29;;;;;;;9.63;6.40;;;22.70;99.90;;;;;;5031180;28;20468;-57
2022/04/15 07:29:55;;;;;;;9.13;6.68;;;22.80;99.90;;;;;;5032213;28;20033;-57
2022/04/15 07:32:22;;;;;;;9.27;6.55;;;22.80;99.90;;;;;;5032351;28;20018;-57
2022/04/15 07:34:51;;;;;;;7.75;6.53;;;22.80;99.90;;;;;;5032154;28;20503;-56
2022/04/15 07:37:17;;;;;;;10.40;7.03;;;22.80;99.90;;;;;;5032330;28;20032;-57
2022/04/15 07:39:43;;;;;;;10.15;6.78;;;22.80;99.90;;;;;;5032229;28;20030;-56
2022/04/15 07:42:11;;;;;;;10.50;6.65;;;22.80;99.90;;;;;;5032078;28;20025;-57
2022/04/15 07:44:38;;;;;;;10.07;6.90;;;22.80;99.90;;;;;;5032314;28;20029;-56
2022/04/15 07:47:04;;;;;;;7.70;6.20;;;22.80;99.90;;;;;;5031993;28;20026;-56
2022/04/15 07:49:30;;;;;;;8.55;6.55;;;22.80;99.90;;;;;;5031825;28;20057;-57
2022/04/15 07:51:56;;;;;;;11.07;6.88;;;22.80;99.90;;;;;;5031696;28;20483;-56
2022/04/15 07:54:21;;;;;;;11.20;6.70;;;22.90;99.90;;;;;;5031997;28;20025;-56
2022/04/15 07:56:47;;;;;;;11.85;6.72;;;22.90;99.90;;;;;;5031663;28;20045;-56
2022/04/15 07:59:13;;;;;;;9.48;6.68;;;22.90;99.90;;;;;;5031555;28;20144;-57
2022/04/15 08:01:39;;;;;;;9.30;6.45;;;22.90;99.90;;;;;;5031516;28;20033;-57
2022/04/15 08:04:05;;;;;;;9.13;6.20;;;22.90;99.90;;;;;;5031647;28;20021;-56
2022/04/15 08:06:31;;;;;;;9.88;6.78;;;22.90;99.90;;;;;;5031660;28;20029;-56
2022/04/15 08:08:58;;;;;;;8.32;5.95;;;22.90;99.90;;;;;;5031404;28;20437;-56
2022/04/15 08:11:25;;;;;;;8.77;6.50;;;22.90;99.90;;;;;;5031755;28;20462;-57
2022/04/15 08:13:52;;;;;;;7.82;6.00;;;22.90;99.90;;;;;;5031655;28;20057;-57
2022/04/15 08:16:18;;;;;;;10.43;6.35;;;22.90;99.90;;;;;;5031535;28;20028;-56
2022/04/15 08:18:43;;;;;;;10.68;6.80;;;22.90;99.90;;;;;;5031254;28;20022;-57
2022/04/15 08:21:09;;;;;;;10.32;6.40;;;22.90;99.90;;;;;;5031563;28;20029;-56
2022/04/15 08:23:35;;;;;;;9.60;6.10;;;22.90;99.90;;;;;;5031177;28;20026;-57
2022/04/15 08:26:01;;;;;;;9.45;6.53;;;23.00;99.90;;;;;;5031456;28;20067;-56
2022/04/15 08:28:27;;;;;;;8.38;6.00;;;23.00;99.90;;;;;;5031155;28;20029;-56
2022/04/15 08:30:53;;;;;;;8.10;5.72;;;23.00;99.90;;;;;;5031307;28;20506;-57
2022/04/15 08:33:18;;;;;;;11.05;6.40;;;23.00;99.90;;;;;;5031411;28;20051;-56
2022/04/15 08:35:44;;;;;;;7.15;5.43;;;23.00;99.90;;;;;;5030973;28;20021;-57
2022/04/15 08:38:11;;;;;;;6.63;5.72;;;23.00;99.90;;;;;;5031229;28;20381;-57
2022/04/15 08:40:39;;;;;;;9.88;6.03;;;23.00;99.90;;;;;;5031018;28;20031;-57
2022/04/15 08:43:06;;;;;;;8.10;5.50;;;23.00;99.90;;;;;;5031023;28;20478;-57
2022/04/15 08:45:33;;;;;;;10.73;5.78;;;23.00;99.90;;;;;;5030753;28;20056;-57
2022/04/15 08:48:01;;;;;;;7.55;5.22;;;23.00;99.90;;;;;;5031102;28;20469;-57
2022/04/15 08:50:31;;;;;;;9.02;5.28;;;23.00;99.90;;;;;;5031386;28;20087;-57
2022/04/15 08:52:58;;;;;;;8.88;5.50;;;23.00;99.90;;;;;;5031401;28;20109;-57
2022/04/15 08:55:27;;;;;;;9.10;5.78;;;23.00;99.90;;;;;;5031335;28;20029;-57
2022/04/15 08:57:53;;;;;;;7.88;5.10;;;23.10;99.90;;;;;;5031222;28;20084;-57
2022/04/15 09:00:20;;;;;;;7.82;4.88;;;23.10;99.90;;;;;;5030793;28;20048;-57
2022/04/15 09:02:47;;;;;;;6.82;5.00;;;23.10;99.90;;;;;;5031153;28;20072;-57
2022/04/15 09:05:17;;;;;;;9.20;4.38;;;23.10;99.90;;;;;;5031127;28;20036;-57
2022/04/15 09:07:45;;;;;;;6.95;5.07;;;23.10;99.90;;;;;;5031126;28;20120;-57
2022/04/15 09:10:12;;;;;;;7.32;5.43;;;23.10;99.90;;;;;;5031041;28;20448;-57
2022/04/15 09:12:40;;;;;;;8.75;5.15;;;23.10;99.90;;;;;;5013437;28;20083;-57
2022/04/15 09:15:06;;;;;;;10.05;5.78;;;23.10;99.90;;;;;;5031087;28;20519;-57
2022/04/15 09:17:34;;;;;;;7.55;4.95;;;23.10;99.90;;;;;;5030906;28;20033;-57
2022/04/15 09:20:00;;;;;;;8.55;5.50;;;23.10;99.90;;;;;;5031040;28;20064;-57
2022/04/15 09:22:26;;;;;;;6.90;5.17;;;23.10;99.90;;;;;;5031011;28;20018;-57
2022/04/15 09:24:52;;;;;;;8.43;5.78;;;23.20;99.90;;;;;;5030843;28;20406;-56
2022/04/15 09:27:20;;;;;;;10.02;6.55;;;23.20;99.90;;;;;;5030666;28;20026;-57
2022/04/15 09:29:46;;;;;;;9.15;5.85;;;23.10;99.90;;;;;;5030714;28;20116;-57
2022/04/15 09:32:16;;;;;;;8.60;5.63;;;23.10;99.90;;;;;;5030897;28;20026;-57
2022/04/15 09:35:07;;;;;;;9.40;5.60;;;23.20;99.90;;;;;;5030889;28;20473;-57
2022/04/15 09:37:44;;;;;;;10.43;6.30;;;23.20;99.90;;;;;;5030600;28;20499;-57
2022/04/15 09:40:16;;;;;;;9.60;6.40;;;23.20;99.90;;;;;;5030776;28;20025;-57
2022/04/15 09:42:53;;;;;;;9.57;6.63;;;23.20;99.90;;;;;;5030505;28;20381;-57
2022/04/15 09:45:24;;;;;;;8.57;6.70;;;23.20;99.90;;;;;;5030430;28;20071;-57
2022/04/15 09:47:58;;;;;;;12.32;6.68;;;23.20;99.90;;;;;;5029171;28;20473;-57
2022/04/15 09:50:38;;;;;;;11.82;8.13;;;23.30;99.90;;;;;;5029311;28;20374;-57
2022/04/15 09:53:13;;;;;;;11.48;7.88;;;23.20;99.90;;;;;;5030557;28;20472;-57
2022/04/15 09:55:40;;;;;;;12.48;8.27;;;23.20;99.90;;;;;;5030503;28;20028;-57
2022/04/15 09:58:11;;;;;;;;;;;23.30;99.90;;;;;;5034219;28;20025;-56
2022/04/15 10:00:38;;;;;;;12.13;7.90;;;23.30;99.90;;;;;;5033890;28;19971;-57
2022/04/15 10:03:09;;;;;;;16.83;8.77;;;23.30;99.90;;;;;;5034234;28;20116;-57
2022/04/15 10:05:38;;;;;;;13.82;8.43;;;23.30;99.90;;;;;;5034038;28;20104;-57
2022/04/15 10:08:05;;;;;;;14.57;9.50;;;23.40;99.90;;;;;;5033936;28;20022;-57
2022/04/15 10:10:33;;;;;;;12.82;7.80;;;23.40;99.90;;;;;;5034026;28;20033;-57
2022/04/15 10:13:04;;;;;;;13.20;8.98;;;23.40;99.90;;;;;;5034063;28;20025;-57
2022/04/15 10:15:36;;;;;;;13.50;9.40;;;23.50;99.90;;;;;;5034046;28;20029;-57
2022/04/15 10:18:03;;;;;;;15.15;9.07;;;23.50;99.90;;;;;;5033955;28;20373;-57
2022/04/15 10:20:31;;;;;;;16.07;9.77;;;23.50;99.90;;;;;;5032626;28;20029;-57
2022/04/15 10:23:05;;;;;;;13.82;8.60;;;23.50;99.90;;;;;;5033846;28;20014;-57
2022/04/15 10:25:33;;;;;;;15.05;9.13;;;23.60;99.90;;;;;;5033867;28;20029;-57
2022/04/15 10:28:06;;;;;;;12.52;8.45;;;23.60;99.90;;;;;;5033914;28;20017;-57
2022/04/15 10:30:32;;;;;;;14.75;9.75;;;23.60;99.90;;;;;;5033898;28;20090;-57
2022/04/15 10:32:58;;;;;;;15.77;9.00;;;23.70;99.90;;;;;;5032506;28;20017;-57
2022/04/15 10:35:31;;;;;;;11.38;7.72;;;23.70;99.90;;;;;;5033670;28;20044;-57
2022/04/15 10:38:01;;;;;;;11.82;8.43;;;23.70;99.90;;;;;;5033540;28;20439;-57
2022/04/15 10:40:29;;;;;;;12.07;8.60;;;23.70;99.90;;;;;;5033534;28;20095;-57
2022/04/15 10:43:04;;;;;;;11.93;8.40;;;23.70;99.90;;;;;;5033267;28;20025;-57
2022/04/15 10:45:34;;;;;;;12.20;7.78;;;23.80;99.90;;;;;;5033618;28;20041;-58
2022/04/15 10:48:01;;;;;;;12.20;7.82;;;23.80;99.90;;;;;;5033536;28;20112;-57
2022/04/15 10:50:29;;;;;;;12.23;8.27;;;23.80;99.90;;;;;;5033641;28;20037;-57
2022/04/15 10:53:23;;;;;;;16.70;8.82;;;23.90;99.90;;;;;;5033320;28;20128;-57
2022/04/15 10:55:52;;;;;;;16.42;8.27;;;23.90;99.90;;;;;;5010007;28;20061;-57
2022/04/15 10:58:20;;;;;;;11.68;7.68;;;23.90;99.90;;;;;;5032988;28;20032;-57
2022/04/15 11:01:19;;;;;;;14.07;8.00;;;24.00;99.90;;;;;;5031818;28;20046;-57
2022/04/15 11:03:57;;;;;;;10.10;7.22;;;24.00;99.90;;;;;;5032939;28;20022;-57
2022/04/15 11:06:28;;;;;;;10.90;7.50;;;24.00;99.90;;;;;;5032985;28;20129;-56
2022/04/15 11:08:55;;;;;;;12.88;7.70;;;24.00;99.90;;;;;;5030631;28;20496;-57
2022/04/15 11:11:35;;;;;;;10.88;7.30;;;24.10;99.90;;;;;;5033115;28;20032;-57
2022/04/15 11:14:03;;;;;;;11.15;8.40;;;24.10;99.90;;;;;;5033061;28;20032;-56
2022/04/15 11:16:50;;;;;;;12.57;7.20;;;24.10;99.90;;;;;;5031636;28;20099;-57
2022/04/15 11:19:36;;;;;;;13.80;7.50;;;24.10;99.90;;;;;;5032734;28;20464;-57
2022/04/15 11:22:01;;;;;;;14.18;8.15;;;24.10;99.90;;;;;;5032986;28;20040;-57
2022/04/15 11:24:33;;;;;;;12.75;7.22;;;24.20;99.90;;;;;;5031328;28;20025;-57
2022/04/15 11:27:03;;;;;;;11.50;7.68;;;24.20;99.90;;;;;;5032698;28;20021;-56
2022/04/15 11:29:31;;;;;;;11.27;7.32;;;24.20;99.90;;;;;;5032536;28;20489;-56
2022/04/15 11:32:05;;;;;;;11.60;6.68;;;24.20;99.90;;;;;;5032572;28;20029;-56
2022/04/15 11:34:32;;;;;;;9.93;6.78;;;24.20;99.90;;;;;;5032589;28;20021;-56
2022/04/15 11:37:05;;;;;;;11.15;6.75;;;24.30;99.90;;;;;;5032493;28;20040;-57
2022/04/15 11:39:36;;;;;;;11.10;6.45;;;24.30;99.90;;;;;;5032403;28;20492;-57
2022/04/15 11:42:09;;;;;;;9.35;6.28;;;24.30;99.90;;;;;;5032450;28;20026;-57
2022/04/15 11:44:36;;;;;;;9.57;6.43;;;24.30;99.90;;;;;;5032481;28;20104;-57
2022/04/15 11:47:21;;;;;;;10.20;7.00;;;24.30;99.90;;;;;;5032300;28;20096;-57
2022/04/15 11:49:51;;;;;;;12.13;6.60;;;24.30;99.90;;;;;;5031981;28;20044;-56
2022/04/15 11:52:25;;;;;;;10.07;6.60;;;24.30;99.90;;;;;;5032113;28;20013;-57
2022/04/15 11:54:51;;;;;;;11.88;6.78;;;24.30;99.90;;;;;;5032045;28;20032;-56
2022/04/15 11:57:17;;;;;;;10.00;6.43;;;24.40;99.90;;;;;;5032142;28;20021;-57
2022/04/15 11:59:46;;;;;;;11.20;6.20;;;24.40;99.90;;;;;;5031699;28;20107;-57
2022/04/15 12:02:14;;;;;;;8.80;5.97;;;24.40;99.90;;;;;;5031945;28;20045;-57
2022/04/15 12:04:54;;;;;;;13.70;7.38;;;24.40;99.90;;;;;;5030843;28;20055;-57
2022/04/15 12:07:21;;;;;;;9.05;6.20;;;24.40;99.90;;;;;;5031796;28;20105;-57
2022/04/15 12:09:48;;;;;;;12.18;6.03;;;24.40;99.90;;;;;;5031815;28;20145;-57
2022/04/15 12:12:15;;;;;;;12.68;7.03;;;24.40;99.90;;;;;;5031584;28;20025;-57
2022/04/15 12:14:41;;;;;;;12.15;6.80;;;24.50;99.90;;;;;;5031785;28;20064;-57
2022/04/15 12:17:19;;;;;;;7.22;5.43;;;24.40;99.90;;;;;;5031803;28;20060;-57
2022/04/15 12:19:46;;;;;;;10.23;5.72;;;24.50;99.90;;;;;;5031657;28;20028;-57
2022/04/15 12:22:13;;;;;;;10.93;5.93;;;24.50;99.90;;;;;;5031453;28;20381;-57
2022/04/15 12:24:39;;;;;;;7.50;5.55;;;24.50;99.90;;;;;;5031607;28;20052;-56
2022/04/15 12:27:05;;;;;;;8.70;5.47;;;24.50;99.90;;;;;;5031792;28;20028;-56
2022/04/15 12:32:17;;;;;;;10.30;6.75;;;24.50;99.90;;;;;;5031579;28;20033;-57
2022/04/15 12:34:45;;;;;;;11.35;5.38;;;24.50;99.90;;;;;;5031451;28;20029;-57
2022/04/15 12:37:36;;;;;;;9.40;6.00;;;24.50;99.90;;;;;;5031245;28;20035;-56
2022/04/15 12:40:07;;;;;;;12.20;6.18;;;24.50;99.90;;;;;;5006885;28;20032;-57